sensor_id;sensor_type;location;lat;lon;timestamp;pressure;altitude;pressure_sealevel;temperature;humidity
77147;BME280;66121;52.584;9.694;2023-07-20T00:02:05;100894.13;;;15.18;94.06
77147;BME280;66121;52.584;9.694;2023-07-20T00:04:31;100904.00;;;15.19;94.87
77147;BME280;66121;52.584;9.694;2023-07-20T00:06:56;100900.41;;;15.25;94.57
77147;BME280;66121;52.584;9.694;2023-07-20T00:09:21;100903.56;;;15.27;94.19
77147;BME280;66121;52.584;9.694;2023-07-20T00:11:49;100897.22;;;15.23;93.39
77147;BME280;66121;52.584;9.694;2023-07-20T00:14:16;100903.97;;;15.26;93.39
77147;BME280;66121;52.584;9.694;2023-07-20T00:16:41;100901.22;;;15.22;93.11
77147;BME280;66121;52.584;9.694;2023-07-20T00:19:06;100900.09;;;15.13;93.71
77147;BME280;66121;52.584;9.694;2023-07-20T00:21:33;100896.94;;;15.11;94.24
77147;BME280;66121;52.584;9.694;2023-07-20T00:23:58;100892.63;;;15.03;94.75
77147;BME280;66121;52.584;9.694;2023-07-20T00:26:24;100905.38;;;15.00;94.91
77147;BME280;66121;52.584;9.694;2023-07-20T00:28:50;100878.50;;;14.79;95.89
77147;BME280;66121;52.584;9.694;2023-07-20T00:31:16;100891.16;;;14.84;96.68
77147;BME280;66121;52.584;9.694;2023-07-20T00:33:41;100889.91;;;14.96;96.74
77147;BME280;66121;52.584;9.694;2023-07-20T00:36:07;100894.25;;;15.00;95.26
77147;BME280;66121;52.584;9.694;2023-07-20T00:38:32;100885.13;;;14.96;95.13
77147;BME280;66121;52.584;9.694;2023-07-20T00:40:57;100885.06;;;15.03;95.42
77147;BME280;66121;52.584;9.694;2023-07-20T00:43:22;100874.72;;;15.07;95.08
77147;BME280;66121;52.584;9.694;2023-07-20T00:45:48;100882.25;;;15.10;94.38
77147;BME280;66121;52.584;9.694;2023-07-20T00:48:14;100877.88;;;15.13;94.23
77147;BME280;66121;52.584;9.694;2023-07-20T00:50:40;100877.09;;;15.09;95.66
77147;BME280;66121;52.584;9.694;2023-07-20T00:53:06;100871.22;;;15.00;95.82
77147;BME280;66121;52.584;9.694;2023-07-20T00:55:31;100883.09;;;15.04;95.71
77147;BME280;66121;52.584;9.694;2023-07-20T00:57:57;100878.69;;;15.06;95.66
77147;BME280;66121;52.584;9.694;2023-07-20T01:00:23;100879.88;;;15.09;94.76
77147;BME280;66121;52.584;9.694;2023-07-20T01:02:48;100891.84;;;14.99;96.04
77147;BME280;66121;52.584;9.694;2023-07-20T01:05:14;100890.28;;;14.98;95.71
77147;BME280;66121;52.584;9.694;2023-07-20T01:12:43;100882.00;;;14.91;95.61
77147;BME280;66121;52.584;9.694;2023-07-20T01:15:11;100881.59;;;14.89;96.02
77147;BME280;66121;52.584;9.694;2023-07-20T01:17:37;100894.63;;;14.99;95.91
77147;BME280;66121;52.584;9.694;2023-07-20T01:20:02;100889.56;;;14.90;95.15
77147;BME280;66121;52.584;9.694;2023-07-20T01:22:42;100895.06;;;14.97;93.91
77147;BME280;66121;52.584;9.694;2023-07-20T01:30:43;100901.78;;;14.96;93.55
77147;BME280;66121;52.584;9.694;2023-07-20T01:33:12;100906.66;;;14.85;94.33
77147;BME280;66121;52.584;9.694;2023-07-20T01:35:38;100900.72;;;14.79;93.76
77147;BME280;66121;52.584;9.694;2023-07-20T01:38:07;100906.75;;;14.67;94.35
77147;BME280;66121;52.584;9.694;2023-07-20T01:40:32;100900.47;;;14.56;93.99
77147;BME280;66121;52.584;9.694;2023-07-20T01:42:58;100906.81;;;14.57;93.81
77147;BME280;66121;52.584;9.694;2023-07-20T01:45:24;100906.84;;;14.46;94.72
77147;BME280;66121;52.584;9.694;2023-07-20T01:47:49;100892.97;;;14.46;94.84
77147;BME280;66121;52.584;9.694;2023-07-20T01:50:14;100900.13;;;14.44;95.04
77147;BME280;66121;52.584;9.694;2023-07-20T01:52:39;100896.59;;;14.40;95.17
77147;BME280;66121;52.584;9.694;2023-07-20T01:55:05;100894.22;;;14.35;94.55
77147;BME280;66121;52.584;9.694;2023-07-20T01:57:31;100888.69;;;14.24;94.52
77147;BME280;66121;52.584;9.694;2023-07-20T01:59:57;100889.09;;;14.19;95.09
77147;BME280;66121;52.584;9.694;2023-07-20T02:02:25;100883.97;;;14.14;95.50
77147;BME280;66121;52.584;9.694;2023-07-20T02:04:51;100889.13;;;14.15;95.92
77147;BME280;66121;52.584;9.694;2023-07-20T02:07:16;100888.75;;;14.06;95.65
77147;BME280;66121;52.584;9.694;2023-07-20T02:09:42;100890.38;;;13.97;95.35
77147;BME280;66121;52.584;9.694;2023-07-20T02:12:07;100892.75;;;13.98;95.12
77147;BME280;66121;52.584;9.694;2023-07-20T02:14:33;100893.56;;;13.92;95.38
77147;BME280;66121;52.584;9.694;2023-07-20T02:16:58;100891.22;;;13.80;95.02
77147;BME280;66121;52.584;9.694;2023-07-20T02:19:25;100891.63;;;13.71;95.39
77147;BME280;66121;52.584;9.694;2023-07-20T02:21:51;100888.44;;;13.69;95.70
77147;BME280;66121;52.584;9.694;2023-07-20T02:24:17;100890.84;;;13.67;95.95
77147;BME280;66121;52.584;9.694;2023-07-20T02:26:42;100887.28;;;13.67;96.03
77147;BME280;66121;52.584;9.694;2023-07-20T02:29:07;100891.66;;;13.61;96.14
77147;BME280;66121;52.584;9.694;2023-07-20T02:31:33;100890.84;;;13.60;96.15
77147;BME280;66121;52.584;9.694;2023-07-20T02:33:59;100894.81;;;13.59;96.81
77147;BME280;66121;52.584;9.694;2023-07-20T02:36:24;100900.75;;;13.54;96.78
77147;BME280;66121;52.584;9.694;2023-07-20T02:38:49;100895.22;;;13.57;97.54
77147;BME280;66121;52.584;9.694;2023-07-20T02:41:14;100898.41;;;13.56;97.99
77147;BME280;66121;52.584;9.694;2023-07-20T02:43:40;100901.94;;;13.49;98.84
77147;BME280;66121;52.584;9.694;2023-07-20T02:46:05;100894.03;;;13.51;98.01
77147;BME280;66121;52.584;9.694;2023-07-20T02:48:30;100888.88;;;13.57;97.94
77147;BME280;66121;52.584;9.694;2023-07-20T02:50:56;100884.53;;;13.52;98.37
77147;BME280;66121;52.584;9.694;2023-07-20T02:53:21;100892.47;;;13.43;99.51
77147;BME280;66121;52.584;9.694;2023-07-20T02:55:46;100899.56;;;13.55;99.96
77147;BME280;66121;52.584;9.694;2023-07-20T02:58:12;100895.97;;;13.69;99.14
77147;BME280;66121;52.584;9.694;2023-07-20T03:00:37;100897.56;;;13.77;98.60
77147;BME280;66121;52.584;9.694;2023-07-20T03:03:03;100897.94;;;13.79;98.80
77147;BME280;66121;52.584;9.694;2023-07-20T03:05:28;100897.94;;;13.82;99.24
77147;BME280;66121;52.584;9.694;2023-07-20T03:07:55;100884.84;;;13.86;99.49
77147;BME280;66121;52.584;9.694;2023-07-20T03:10:20;100900.69;;;13.89;100.00
77147;BME280;66121;52.584;9.694;2023-07-20T03:12:46;100905.06;;;13.90;100.00
77147;BME280;66121;52.584;9.694;2023-07-20T03:15:11;100914.16;;;13.94;100.00
77147;BME280;66121;52.584;9.694;2023-07-20T03:17:36;100916.94;;;13.98;100.00
77147;BME280;66121;52.584;9.694;2023-07-20T03:20:02;100907.81;;;14.01;99.38
77147;BME280;66121;52.584;9.694;2023-07-20T03:22:28;100903.44;;;14.03;98.63
77147;BME280;66121;52.584;9.694;2023-07-20T03:24:53;100919.66;;;14.15;99.42
77147;BME280;66121;52.584;9.694;2023-07-20T03:27:18;100914.06;;;14.23;100.00
77147;BME280;66121;52.584;9.694;2023-07-20T03:29:44;100913.28;;;14.22;100.00
77147;BME280;66121;52.584;9.694;2023-07-20T03:32:10;100908.50;;;14.30;100.00
77147;BME280;66121;52.584;9.694;2023-07-20T03:34:36;100903.72;;;14.37;100.00
77147;BME280;66121;52.584;9.694;2023-07-20T03:37:01;100908.06;;;14.42;99.39
77147;BME280;66121;52.584;9.694;2023-07-20T03:39:29;100902.97;;;14.33;98.67
77147;BME280;66121;52.584;9.694;2023-07-20T03:41:54;100910.88;;;14.35;99.17
77147;BME280;66121;52.584;9.694;2023-07-20T03:44:20;100915.22;;;14.43;100.00
77147;BME280;66121;52.584;9.694;2023-07-20T03:46:45;100910.81;;;14.49;99.46
77147;BME280;66121;52.584;9.694;2023-07-20T03:49:10;100907.66;;;14.47;99.85
77147;BME280;66121;52.584;9.694;2023-07-20T03:51:35;100895.38;;;14.44;100.00
77147;BME280;66121;52.584;9.694;2023-07-20T03:54:01;100915.88;;;14.64;100.00
77147;BME280;66121;52.584;9.694;2023-07-20T03:56:27;100909.53;;;14.64;99.96
77147;BME280;66121;52.584;9.694;2023-07-20T03:58:52;100916.66;;;14.68;100.00
77147;BME280;66121;52.584;9.694;2023-07-20T04:01:17;100921.00;;;14.73;100.00
77147;BME280;66121;52.584;9.694;2023-07-20T04:03:43;100927.75;;;14.75;100.00
77147;BME280;66121;52.584;9.694;2023-07-20T04:06:08;100924.97;;;14.75;99.67
77147;BME280;66121;52.584;9.694;2023-07-20T04:08:34;100931.28;;;14.76;100.00
77147;BME280;66121;52.584;9.694;2023-07-20T04:11:04;100928.50;;;14.79;100.00
77147;BME280;66121;52.584;9.694;2023-07-20T04:13:29;100935.63;;;14.84;99.78
77147;BME280;66121;52.584;9.694;2023-07-20T04:15:58;100927.75;;;14.75;100.00
77147;BME280;66121;52.584;9.694;2023-07-20T04:18:23;100938.16;;;14.54;100.00
77147;BME280;66121;52.584;9.694;2023-07-20T04:20:49;100935.03;;;14.48;100.00
77147;BME280;66121;52.584;9.694;2023-07-20T04:23:15;100944.56;;;14.40;100.00
77147;BME280;66121;52.584;9.694;2023-07-20T04:25:40;100944.53;;;14.44;100.00
77147;BME280;66121;52.584;9.694;2023-07-20T04:28:06;100944.53;;;14.44;100.00
77147;BME280;66121;52.584;9.694;2023-07-20T04:30:36;100937.44;;;14.39;100.00
77147;BME280;66121;52.584;9.694;2023-07-20T04:33:02;100949.69;;;14.52;100.00
77147;BME280;66121;52.584;9.694;2023-07-20T04:35:53;100948.91;;;14.45;100.00
77147;BME280;66121;52.584;9.694;2023-07-20T04:38:19;100952.06;;;14.47;100.00
77147;BME280;66121;52.584;9.694;2023-07-20T04:40:45;100950.47;;;14.49;100.00
77147;BME280;66121;52.584;9.694;2023-07-20T04:43:11;100947.31;;;14.44;100.00
77147;BME280;66121;52.584;9.694;2023-07-20T04:45:36;100955.19;;;14.59;100.00
77147;BME280;66121;52.584;9.694;2023-07-20T04:48:01;100948.50;;;14.53;100.00
77147;BME280;66121;52.584;9.694;2023-07-20T04:50:27;100948.47;;;14.57;100.00
77147;BME280;66121;52.584;9.694;2023-07-20T04:52:53;100937.34;;;14.57;100.00
77147;BME280;66121;52.584;9.694;2023-07-20T04:55:18;100949.63;;;14.63;100.00
77147;BME280;66121;52.584;9.694;2023-07-20T04:57:44;100952.38;;;14.66;100.00
77147;BME280;66121;52.584;9.694;2023-07-20T05:00:10;100948.38;;;14.71;100.00
77147;BME280;66121;52.584;9.694;2023-07-20T05:02:36;100952.72;;;14.79;100.00
77147;BME280;66121;52.584;9.694;2023-07-20T05:05:03;100953.50;;;14.79;100.00
77147;BME280;66121;52.584;9.694;2023-07-20T05:07:30;100947.94;;;14.83;100.00
77147;BME280;66121;52.584;9.694;2023-07-20T05:09:55;100958.59;;;14.95;100.00
77147;BME280;66121;52.584;9.694;2023-07-20T05:12:20;100955.00;;;14.98;100.00
77147;BME280;66121;52.584;9.694;2023-07-20T05:14:45;100957.31;;;15.07;100.00
77147;BME280;66121;52.584;9.694;2023-07-20T05:17:11;100954.22;;;14.98;100.00
77147;BME280;66121;52.584;9.694;2023-07-20T05:19:36;100954.09;;;15.12;100.00
77147;BME280;66121;52.584;9.694;2023-07-20T05:22:01;100963.25;;;15.12;100.00
77147;BME280;66121;52.584;9.694;2023-07-20T05:24:27;100940.63;;;15.10;100.00
77147;BME280;66121;52.584;9.694;2023-07-20T05:26:52;100970.78;;;15.15;100.00
77147;BME280;66121;52.584;9.694;2023-07-20T05:29:17;100961.25;;;15.13;100.00
77147;BME280;66121;52.584;9.694;2023-07-20T05:31:43;100973.19;;;15.10;100.00
77147;BME280;66121;52.584;9.694;2023-07-20T05:34:08;100975.91;;;15.13;100.00
77147;BME280;66121;52.584;9.694;2023-07-20T05:36:33;100961.59;;;15.18;100.00
77147;BME280;66121;52.584;9.694;2023-07-20T05:38:58;100965.84;;;15.33;100.00
77147;BME280;66121;52.584;9.694;2023-07-20T05:41:24;100966.63;;;15.37;100.00
77147;BME280;66121;52.584;9.694;2023-07-20T05:43:49;100976.22;;;15.33;100.00
77147;BME280;66121;52.584;9.694;2023-07-20T05:46:14;100983.25;;;15.44;100.00
77147;BME280;66121;52.584;9.694;2023-07-20T05:48:40;100972.88;;;15.56;100.00
77147;BME280;66121;52.584;9.694;2023-07-20T05:51:05;100974.09;;;15.51;100.00
77147;BME280;66121;52.584;9.694;2023-07-20T05:53:31;100972.13;;;15.52;100.00
77147;BME280;66121;52.584;9.694;2023-07-20T05:55:56;100953.44;;;15.52;100.00
77147;BME280;66121;52.584;9.694;2023-07-20T05:58:21;100968.44;;;15.62;100.00
77147;BME280;66121;52.584;9.694;2023-07-20T06:00:48;100975.53;;;15.70;100.00
77147;BME280;66121;52.584;9.694;2023-07-20T06:03:14;100971.97;;;15.66;100.00
77147;BME280;66121;52.584;9.694;2023-07-20T06:05:41;100980.66;;;15.75;100.00
77147;BME280;66121;52.584;9.694;2023-07-20T06:08:07;100992.97;;;15.77;100.00
77147;BME280;66121;52.584;9.694;2023-07-20T06:10:32;100974.22;;;15.81;100.00
77147;BME280;66121;52.584;9.694;2023-07-20T06:12:57;100975.94;;;15.68;100.00
77147;BME280;66121;52.584;9.694;2023-07-20T06:15:33;100981.13;;;15.66;100.00
77147;BME280;66121;52.584;9.694;2023-07-20T06:18:00;100992.16;;;15.77;100.00
77147;BME280;66121;52.584;9.694;2023-07-20T06:20:26;100989.16;;;15.98;100.00
77147;BME280;66121;52.584;9.694;2023-07-20T06:22:51;100996.91;;;16.21;100.00
77147;BME280;66121;52.584;9.694;2023-07-20T06:25:17;100990.84;;;16.29;99.57
77147;BME280;66121;52.584;9.694;2023-07-20T06:27:43;100998.25;;;16.05;98.25
77147;BME280;66121;52.584;9.694;2023-07-20T06:30:08;100999.63;;;15.87;99.71
77147;BME280;66121;52.584;9.694;2023-07-20T06:32:34;100987.34;;;15.84;100.00
77147;BME280;66121;52.584;9.694;2023-07-20T06:34:59;100985.31;;;16.26;99.27
77147;BME280;66121;52.584;9.694;2023-07-20T06:37:24;101005.06;;;16.75;100.00
77147;BME280;66121;52.584;9.694;2023-07-20T06:39:50;101007.06;;;16.75;94.71
77147;BME280;66121;52.584;9.694;2023-07-20T06:42:15;101002.91;;;16.56;96.84
77147;BME280;66121;52.584;9.694;2023-07-20T06:44:40;101004.22;;;16.45;93.54
77147;BME280;66121;52.584;9.694;2023-07-20T06:47:06;100993.22;;;16.31;96.15
77147;BME280;66121;52.584;9.694;2023-07-20T06:49:32;101003.16;;;16.32;94.89
77147;BME280;66121;52.584;9.694;2023-07-20T06:51:58;101002.09;;;16.56;94.88
77147;BME280;66121;52.584;9.694;2023-07-20T06:54:23;100995.81;;;16.52;93.95
77147;BME280;66121;52.584;9.694;2023-07-20T06:56:49;101009.22;;;16.91;92.84
77147;BME280;66121;52.584;9.694;2023-07-20T06:59:14;101007.69;;;16.90;92.01
77147;BME280;66121;52.584;9.694;2023-07-20T07:01:39;101008.28;;;17.31;91.16
77147;BME280;66121;52.584;9.694;2023-07-20T07:04:04;101009.50;;;17.30;90.54
77147;BME280;66121;52.584;9.694;2023-07-20T07:06:30;101008.19;;;17.65;88.98
77147;BME280;66121;52.584;9.694;2023-07-20T07:08:56;100999.63;;;17.49;87.00
77147;BME280;66121;52.584;9.694;2023-07-20T07:11:21;101005.81;;;17.86;87.16
77147;BME280;66121;52.584;9.694;2023-07-20T07:13:47;101012.41;;;18.19;87.49
77147;BME280;66121;52.584;9.694;2023-07-20T07:16:14;100998.47;;;17.73;83.91
77147;BME280;66121;52.584;9.694;2023-07-20T07:18:43;101004.84;;;17.47;85.23
77147;BME280;66121;52.584;9.694;2023-07-20T07:21:09;101013.91;;;17.27;86.25
77147;BME280;66121;52.584;9.694;2023-07-20T07:23:34;101009.81;;;17.05;86.12
77147;BME280;66121;52.584;9.694;2023-07-20T07:25:59;101009.34;;;17.90;83.44
77147;BME280;66121;52.584;9.694;2023-07-20T07:28:25;101012.50;;;18.35;81.65
77147;BME280;66121;52.584;9.694;2023-07-20T07:30:50;101016.25;;;18.06;81.10
77147;BME280;66121;52.584;9.694;2023-07-20T07:33:15;101010.34;;;18.43;78.57
77147;BME280;66121;52.584;9.694;2023-07-20T07:35:40;101010.38;;;18.82;77.37
77147;BME280;66121;52.584;9.694;2023-07-20T07:38:06;101017.84;;;19.60;76.33
77147;BME280;66121;52.584;9.694;2023-07-20T07:40:31;101008.75;;;19.88;72.23
77147;BME280;66121;52.584;9.694;2023-07-20T07:42:57;101014.88;;;19.51;70.32
77147;BME280;66121;52.584;9.694;2023-07-20T07:45:22;101022.09;;;19.97;69.90
77147;BME280;66121;52.584;9.694;2023-07-20T07:47:47;101016.09;;;19.99;68.17
77147;BME280;66121;52.584;9.694;2023-07-20T07:50:13;101016.91;;;20.44;66.89
77147;BME280;66121;52.584;9.694;2023-07-20T07:52:38;101022.44;;;21.01;68.14
77147;BME280;66121;52.584;9.694;2023-07-20T07:55:04;101015.75;;;20.70;65.05
77147;BME280;66121;52.584;9.694;2023-07-20T07:57:29;101019.75;;;19.79;66.37
77147;BME280;66121;52.584;9.694;2023-07-20T07:59:54;101017.28;;;20.14;66.48
77147;BME280;66121;52.584;9.694;2023-07-20T08:02:20;101020.56;;;20.70;66.10
77147;BME280;66121;52.584;9.694;2023-07-20T08:04:46;101019.78;;;21.73;63.18
77147;BME280;66121;52.584;9.694;2023-07-20T08:07:12;101025.44;;;21.61;62.03
77147;BME280;66121;52.584;9.694;2023-07-20T08:09:37;101025.28;;;20.73;63.22
77147;BME280;66121;52.584;9.694;2023-07-20T08:12:03;101019.22;;;19.84;64.26
77147;BME280;66121;52.584;9.694;2023-07-20T08:14:28;101027.56;;;19.56;66.93
77147;BME280;66121;52.584;9.694;2023-07-20T08:16:54;101024.63;;;19.07;70.11
77147;BME280;66121;52.584;9.694;2023-07-20T08:19:19;101029.22;;;18.98;68.80
77147;BME280;66121;52.584;9.694;2023-07-20T08:21:45;101032.91;;;19.66;67.54
77147;BME280;66121;52.584;9.694;2023-07-20T08:24:10;101035.25;;;20.61;65.09
77147;BME280;66121;52.584;9.694;2023-07-20T08:26:35;101025.91;;;20.51;61.92
77147;BME280;66121;52.584;9.694;2023-07-20T08:29:00;101035.25;;;20.61;64.19
77147;BME280;66121;52.584;9.694;2023-07-20T08:31:26;101020.34;;;20.35;64.15
77147;BME280;66121;52.584;9.694;2023-07-20T08:33:53;101026.50;;;19.82;66.08
77147;BME280;66121;52.584;9.694;2023-07-20T08:36:18;101027.97;;;19.38;64.89
77147;BME280;66121;52.584;9.694;2023-07-20T08:38:43;101030.88;;;20.31;64.25
77147;BME280;66121;52.584;9.694;2023-07-20T08:41:09;101029.78;;;21.24;58.95
77147;BME280;66121;52.584;9.694;2023-07-20T08:43:34;101037.78;;;21.38;56.08
77147;BME280;66121;52.584;9.694;2023-07-20T08:46:03;101032.16;;;21.89;54.51
77147;BME280;66121;52.584;9.694;2023-07-20T08:48:30;101025.31;;;22.24;55.10
77147;BME280;66121;52.584;9.694;2023-07-20T08:50:56;101031.41;;;22.78;50.53
77147;BME280;66121;52.584;9.694;2023-07-20T08:53:22;101034.22;;;22.44;48.85
77147;BME280;66121;52.584;9.694;2023-07-20T08:55:50;101040.16;;;23.02;54.18
77147;BME280;66121;52.584;9.694;2023-07-20T08:58:18;101033.75;;;22.58;49.21
77147;BME280;66121;52.584;9.694;2023-07-20T09:00:44;101033.38;;;22.00;50.23
77147;BME280;66121;52.584;9.694;2023-07-20T09:03:10;101036.84;;;21.92;51.25
77147;BME280;66121;52.584;9.694;2023-07-20T09:05:36;101033.06;;;21.48;51.74
77147;BME280;66121;52.584;9.694;2023-07-20T09:08:01;101026.63;;;21.22;53.45
77147;BME280;66121;52.584;9.694;2023-07-20T09:10:29;101033.94;;;20.78;53.77
77147;BME280;66121;52.584;9.694;2023-07-20T09:12:54;101026.84;;;20.61;52.75
77147;BME280;66121;52.584;9.694;2023-07-20T09:15:21;101033.56;;;20.19;53.77
77147;BME280;66121;52.584;9.694;2023-07-20T09:17:48;101031.63;;;20.32;55.02
77147;BME280;66121;52.584;9.694;2023-07-20T09:20:15;101026.84;;;20.16;54.88
77147;BME280;66121;52.584;9.694;2023-07-20T09:22:41;101018.97;;;20.11;55.70
77147;BME280;66121;52.584;9.694;2023-07-20T09:25:14;101026.03;;;20.00;53.26
77147;BME280;66121;52.584;9.694;2023-07-20T09:27:47;101012.91;;;20.13;55.02
77147;BME280;66121;52.584;9.694;2023-07-20T09:30:15;101034.41;;;21.43;53.92
77147;BME280;66121;52.584;9.694;2023-07-20T09:32:47;101042.16;;;21.90;50.79
77147;BME280;66121;52.584;9.694;2023-07-20T09:35:21;101036.84;;;22.73;50.77
77147;BME280;66121;52.584;9.694;2023-07-20T09:37:51;101024.38;;;23.04;51.19
77147;BME280;66121;52.584;9.694;2023-07-20T09:40:18;101033.84;;;21.86;51.36
77147;BME280;66121;52.584;9.694;2023-07-20T09:42:43;101039.81;;;21.50;51.63
77147;BME280;66121;52.584;9.694;2023-07-20T09:45:09;101040.81;;;21.56;53.61
77147;BME280;66121;52.584;9.694;2023-07-20T09:47:38;101033.72;;;21.27;52.80
77147;BME280;66121;52.584;9.694;2023-07-20T09:50:04;101029.75;;;20.70;53.93
77147;BME280;66121;52.584;9.694;2023-07-20T09:52:37;101028.59;;;20.26;55.24
77147;BME280;66121;52.584;9.694;2023-07-20T09:55:04;101047.72;;;21.14;56.72
77147;BME280;66121;52.584;9.694;2023-07-20T09:57:32;101032.53;;;22.46;52.54
77147;BME280;66121;52.584;9.694;2023-07-20T09:59:58;101027.47;;;23.28;50.01
77147;BME280;66121;52.584;9.694;2023-07-20T10:02:32;101043.22;;;23.87;49.27
77147;BME280;66121;52.584;9.694;2023-07-20T10:05:02;101025.84;;;22.87;49.51
77147;BME280;66121;52.584;9.694;2023-07-20T10:07:30;101030.00;;;23.35;46.75
77147;BME280;66121;52.584;9.694;2023-07-20T10:09:59;101037.25;;;23.85;46.51
77147;BME280;66121;52.584;9.694;2023-07-20T10:12:27;101025.13;;;24.79;46.44
77147;BME280;66121;52.584;9.694;2023-07-20T10:15:08;101027.19;;;24.60;44.15
77147;BME280;66121;52.584;9.694;2023-07-20T10:17:37;101027.72;;;24.01;47.46
77147;BME280;66121;52.584;9.694;2023-07-20T10:20:06;101026.97;;;23.21;45.93
77147;BME280;66121;52.584;9.694;2023-07-20T10:22:35;101030.81;;;21.93;46.48
77147;BME280;66121;52.584;9.694;2023-07-20T10:25:01;101033.16;;;21.69;50.01
77147;BME280;66121;52.584;9.694;2023-07-20T10:27:30;101035.34;;;22.12;48.72
77147;BME280;66121;52.584;9.694;2023-07-20T10:29:55;101035.88;;;23.50;51.05
77147;BME280;66121;52.584;9.694;2023-07-20T10:32:24;101015.09;;;22.95;45.50
77147;BME280;66121;52.584;9.694;2023-07-20T10:34:53;101031.19;;;23.47;43.10
77147;BME280;66121;52.584;9.694;2023-07-20T10:37:53;101018.94;;;23.99;43.86
77147;BME280;66121;52.584;9.694;2023-07-20T10:40:38;101027.19;;;24.42;41.29
77147;BME280;66121;52.584;9.694;2023-07-20T10:43:08;101013.66;;;24.91;41.47
77147;BME280;66121;52.584;9.694;2023-07-20T10:45:41;101015.63;;;23.82;44.08
77147;BME280;66121;52.584;9.694;2023-07-20T10:48:15;101015.16;;;25.11;46.58
77147;BME280;66121;52.584;9.694;2023-07-20T10:50:41;101008.03;;;25.33;42.13
77147;BME280;66121;52.584;9.694;2023-07-20T10:53:15;101017.25;;;25.85;40.21
77147;BME280;66121;52.584;9.694;2023-07-20T10:55:41;101023.97;;;25.87;42.30
77147;BME280;66121;52.584;9.694;2023-07-20T11:00:35;101012.56;;;25.49;40.93
77147;BME280;66121;52.584;9.694;2023-07-20T11:03:00;101014.47;;;24.83;40.49
77147;BME280;66121;52.584;9.694;2023-07-20T11:05:33;101013.63;;;25.01;38.04
77147;BME280;66121;52.584;9.694;2023-07-20T11:08:06;101012.16;;;25.65;42.75
77147;BME280;66121;52.584;9.694;2023-07-20T11:10:31;101011.19;;;25.68;40.19
77147;BME280;66121;52.584;9.694;2023-07-20T11:18:21;101010.22;;;25.38;38.96
77147;BME280;66121;52.584;9.694;2023-07-20T11:20:50;101009.50;;;25.85;39.96
77147;BME280;66121;52.584;9.694;2023-07-20T11:23:16;100994.25;;;25.92;38.58
77147;BME280;66121;52.584;9.694;2023-07-20T11:25:41;101009.53;;;26.09;36.97
77147;BME280;66121;52.584;9.694;2023-07-20T11:28:07;100990.13;;;23.86;39.45
77147;BME280;66121;52.584;9.694;2023-07-20T11:30:34;101012.00;;;23.33;42.86
77147;BME280;66121;52.584;9.694;2023-07-20T11:32:59;101011.63;;;24.92;44.05
77147;BME280;66121;52.584;9.694;2023-07-20T11:35:25;101028.19;;;25.92;40.24
77147;BME280;66121;52.584;9.694;2023-07-20T11:37:50;101010.16;;;25.56;37.98
77147;BME280;66121;52.584;9.694;2023-07-20T11:40:16;101021.19;;;25.78;39.91
77147;BME280;66121;52.584;9.694;2023-07-20T11:42:41;101012.97;;;26.51;35.23
77147;BME280;66121;52.584;9.694;2023-07-20T11:45:06;101002.06;;;26.20;35.11
77147;BME280;66121;52.584;9.694;2023-07-20T11:47:32;100997.69;;;26.72;36.34
77147;BME280;66121;52.584;9.694;2023-07-20T11:50:03;101010.03;;;26.99;38.01
77147;BME280;66121;52.584;9.694;2023-07-20T11:52:28;101002.00;;;25.82;34.88
77147;BME280;66121;52.584;9.694;2023-07-20T11:54:54;100993.47;;;26.53;34.92
77147;BME280;66121;52.584;9.694;2023-07-20T11:57:20;101003.50;;;26.40;38.46
77147;BME280;66121;52.584;9.694;2023-07-20T11:59:58;100998.75;;;24.91;37.14
77147;BME280;66121;52.584;9.694;2023-07-20T12:02:26;100993.75;;;24.04;38.51
77147;BME280;66121;52.584;9.694;2023-07-20T12:04:54;100998.53;;;23.67;40.04
77147;BME280;66121;52.584;9.694;2023-07-20T12:07:19;101001.16;;;24.47;40.17
77147;BME280;66121;52.584;9.694;2023-07-20T12:09:45;101004.31;;;25.18;41.50
77147;BME280;66121;52.584;9.694;2023-07-20T12:12:28;100998.91;;;25.80;36.81
77147;BME280;66121;52.584;9.694;2023-07-20T12:14:53;100992.81;;;25.96;34.58
77147;BME280;66121;52.584;9.694;2023-07-20T12:17:18;100992.47;;;24.96;36.93
77147;BME280;66121;52.584;9.694;2023-07-20T12:19:43;100988.03;;;23.59;38.25
77147;BME280;66121;52.584;9.694;2023-07-20T12:22:09;101002.78;;;23.01;40.68
77147;BME280;66121;52.584;9.694;2023-07-20T12:24:36;100991.38;;;23.05;40.49
77147;BME280;66121;52.584;9.694;2023-07-20T12:27:01;100991.19;;;22.99;41.50
77147;BME280;66121;52.584;9.694;2023-07-20T12:29:27;100995.44;;;22.73;42.19
77147;BME280;66121;52.584;9.694;2023-07-20T12:31:52;100984.97;;;22.61;41.37
77147;BME280;66121;52.584;9.694;2023-07-20T12:34:17;100987.28;;;22.32;44.11
77147;BME280;66121;52.584;9.694;2023-07-20T12:36:43;100996.50;;;22.32;43.92
77147;BME280;66121;52.584;9.694;2023-07-20T12:39:08;101010.66;;;22.29;44.30
77147;BME280;66121;52.584;9.694;2023-07-20T12:41:33;101005.78;;;21.48;46.16
77147;BME280;66121;52.584;9.694;2023-07-20T12:43:58;101011.81;;;21.34;47.37
77147;BME280;66121;52.584;9.694;2023-07-20T12:46:25;101011.59;;;21.16;48.50
77147;BME280;66121;52.584;9.694;2023-07-20T12:48:50;101014.63;;;21.22;50.13
77147;BME280;66121;52.584;9.694;2023-07-20T12:51:15;100999.25;;;21.51;50.17
77147;BME280;66121;52.584;9.694;2023-07-20T12:53:41;101013.94;;;21.80;49.26
77147;BME280;66121;52.584;9.694;2023-07-20T12:56:07;101015.72;;;21.74;48.22
77147;BME280;66121;52.584;9.694;2023-07-20T12:58:32;101008.00;;;22.47;48.07
77147;BME280;66121;52.584;9.694;2023-07-20T13:00:57;101000.25;;;23.65;46.79
77147;BME280;66121;52.584;9.694;2023-07-20T13:03:23;100994.88;;;23.49;44.74